• Join FlightAware (Why Join?)
  • Login
  • US Flag 
10:01AM EDT


 

Airport Tracker/Info


-or-


 

Live Flight TrackerFlight Track Log ✈ UAL1177 ✈ 18-May-2013 ✈ KDEN - KPDX

Flight Track Log - Related Links

Times and Time Zones

All times are in EDT time to prevent confusion due to time zone crossing. See the UAL1177 flight status page for this flight to view local times or setup timezone preferences in your user account.

Time Position Orientation Groundspeed Altitude Reporting Facility
EDT Latitude Longitude Course Direction KTS MPH feet Rate Location/Type
09:32PM 39.8917 -104.6960 North 187 215 6,200  Level FlightAware ADS-B
09:32PM 39.9050 -104.6950 North 194 223 6,700 1,620 Climbing FlightAware ADS-B
09:32PM 39.9189 -104.6940 North 208 239 7,000 1,260 Climbing FlightAware ADS-B
09:33PM 39.9327 -104.6930 North 226 260 7,300 1,380 Climbing FlightAware ADS-B
09:33PM 39.9463 -104.6920 North 239 275 7,600 1,920 Climbing FlightAware ADS-B
09:33PM 39.9634 -104.6910 North 243 280 8,200 2,340 Climbing FlightAware ADS-B
09:33PM 39.9829 -104.6910 360° North 246 283 8,900 2,100 Climbing FlightAware ADS-B
09:34PM 39.9966 -104.6900 North 257 296 9,200 1,200 Climbing FlightAware ADS-B
09:34PM 40.0127 -104.6890 North 274 315 9,400 1,200 Climbing FlightAware ADS-B
09:34PM 40.0327 -104.6890 360° North 291 335 9,800 1,680 Climbing FlightAware ADS-B
09:35PM 40.0744 -104.6870 North 297 342 10,700 1,620 Climbing FlightAware ADS-B
09:35PM 40.1040 -104.6860 North 310 357 11,200 1,440 Climbing FlightAware ADS-B
09:35PM 40.1103 -104.6870 353° North 311 358 11,300 2,160 Climbing FlightAware ADS-B
09:35PM 40.1191 -104.6880 355° North 314 361 11,600 2,280 Climbing FlightAware ADS-B
09:35PM 40.1282 -104.6900 350° North 316 364 11,800 2,100 Climbing FlightAware ADS-B
09:35PM 40.1438 -104.6960 344° North 324 373 12,200 2,280 Climbing FlightAware ADS-B
09:36PM 40.1869 -104.7220 335° Northwest 335 386 13,400 2,340 Climbing FlightAware ADS-B
09:36PM 40.2301 -104.7480 335° Northwest 345 397 14,600 2,280 Climbing FlightAware ADS-B
09:37PM 40.2746 -104.7750 335° Northwest 354 407 15,700 2,040 Climbing FlightAware ADS-B
09:37PM 40.3166 -104.8000 336° Northwest 365 420 16,600 2,280 Climbing FlightAware ADS-B
09:38PM 40.3698 -104.8310 336° Northwest 367 422 18,100 2,160 Climbing FlightAware ADS-B
09:38PM 40.4193 -104.8610 335° Northwest 372 428 19,000 1,800 Climbing FlightAware ADS-B
09:39PM 40.4678 -104.8900 336° Northwest 379 436 20,000 1,860 Climbing FlightAware ADS-B
09:39PM 40.5166 -104.9190 336° Northwest 384 442 20,900 1,560 Climbing FlightAware ADS-B
09:40PM 40.5656 -104.9480 336° Northwest 394 453 21,600 960 Climbing FlightAware ADS-B
09:40PM 40.6195 -104.9810 335° Northwest 416 479 21,900 660 Climbing FlightAware ADS-B
09:41PM 40.6754 -105.0140 336° Northwest 438 504 22,300 1,200 Climbing FlightAware ADS-B
09:42PM 40.7360 -105.0510 335° Northwest 444 511 23,300 1,740 Climbing FlightAware
09:42PM 40.7549 -105.0650 331° Northwest 441 507 23,600 2,100 Climbing FlightAware ADS-B
09:42PM 40.7771 -105.0840 327° Northwest 446 513 23,900 1,380 Climbing FlightAware ADS-B
09:43PM 40.8586 -105.1730 320° Northwest 450 518 25,100 1,260 Climbing FlightAware ADS-B
09:44PM 40.9470 -105.2740 319° Northwest 463 533 26,200 1,140 Climbing FlightAware
09:44PM 41.0130 -105.3490 319° Northwest 472 543 27,000 1,020 Climbing FlightAware
09:45PM 41.0860 -105.4320 319° Northwest 482 555 27,700 1,080 Climbing FlightAware
09:46PM 41.1650 -105.5230 319° Northwest 486 559 28,700 1,320 Climbing FlightAware
09:47PM 41.2280 -105.5950 319° Northwest 486 559 29,600 1,200 Climbing FlightAware
09:47PM 41.2980 -105.6760 319° Northwest 494 568 30,300 660 Climbing FlightAware
09:48PM 41.3570 -105.7930 304° West 491 565 30,600 660 Climbing FlightAware
09:49PM 41.3840 -105.9050 288° West 491 565 31,300 720 Climbing FlightAware
09:49PM 41.4160 -106.0310 289° West 499 574 31,700 480 Climbing FlightAware
09:50PM 41.4470 -106.1500 289° West 507 583 32,000 300 Climbing FlightAware
09:51PM 41.4790 -106.2790 288° West 511 588 32,200 120 Climbing FlightAware
09:52PM 41.5100 -106.4070 288° West 511 588 32,200  Level FlightAware
09:52PM 41.5340 -106.5090 287° West 511 588 32,200  Level FlightAware
09:53PM 41.5590 -106.6110 288° West 511 588 32,200  Level FlightAware
09:54PM 41.5900 -106.7390 288° West 511 588 32,200  Level FlightAware
09:54PM 41.6150 -106.8410 288° West 511 588 32,200  Level FlightAware
09:55PM 41.6400 -106.9440 288° West 511 588 32,200  Level FlightAware
09:56PM 41.6650 -107.0460 288° West 511 588 32,200  Level FlightAware
09:56PM 41.6900 -107.1480 288° West 511 588 32,200  Level FlightAware
09:57PM 41.7210 -107.2760 288° West 511 588 32,200  Level FlightAware
09:58PM 41.7460 -107.3790 288° West 511 588 32,200  Level FlightAware
09:59PM 41.7700 -107.4810 288° West 511 588 32,200  Level FlightAware
09:59PM 41.7950 -107.5840 288° West 511 588 32,200  Level FlightAware
10:00PM 41.8200 -107.6860 288° West 511 588 32,200 960 Level FlightAware
10:01PM 41.8986 -108.0067 288° West 452 520 34,000 840 Climbing Denver Center
10:02PM 41.9342 -108.1592 287° West 451 519 34,000  Level Salt Lake Center
10:03PM 41.9758 -108.3350 288° West 447 514 34,000  Level Salt Lake Center
10:04PM 42.0086 -108.4858 286° West 443 510 34,000  Level Salt Lake Center
10:05PM 42.0481 -108.6619 287° West 442 509 34,000  Level Salt Lake Center
10:06PM 42.0819 -108.8100 287° West 438 504 34,000  Level Salt Lake Center
10:07PM 42.1161 -108.9592 287° West 438 504 34,000  Level Salt Lake Center
10:08PM 42.1536 -109.1328 286° West 436 502 34,000  Level Salt Lake Center
10:09PM 42.1867 -109.2842 286° West 439 505 34,000  Level Salt Lake Center
10:10PM 42.2244 -109.4589 286° West 437 503 34,000 60 Level Salt Lake Center
10:11PM 42.2567 -109.6100 286° West 438 504 34,200 540 Climbing Salt Lake Center
10:12PM 42.2900 -109.7644 286° West 446 513 35,100 660 Climbing Salt Lake Center
10:13PM 42.3289 -109.9433 286° West 446 513 35,600 420 Climbing Salt Lake Center
10:14PM 42.3611 -110.0978 286° West 447 514 36,000 180 Climbing Salt Lake Center
10:15PM 42.4000 -110.2786 286° West 450 518 36,000  Level Salt Lake Center
10:16PM 42.4319 -110.4328 286° West 447 514 36,000  Level Salt Lake Center
10:17PM 42.4639 -110.5858 286° West 443 510 36,000  Level Salt Lake Center
10:18PM 42.5008 -110.7647 286° West 444 511 36,000  Level Salt Lake Center
10:19PM 42.5322 -110.9164 286° West 439 505 36,000  Level Salt Lake Center
10:20PM 42.5650 -111.0836 285° West 440 506 36,000  Level Salt Lake Center
10:21PM 42.5972 -111.2431 285° West 440 506 36,000  Level Salt Lake Center
10:22PM 42.6289 -111.4028 285° West 440 506 36,000  Level Salt Lake Center
10:23PM 42.6600 -111.5622 285° West 440 506 36,000  Level Salt Lake Center
10:24PM 42.6919 -111.7233 285° West 443 510 36,000  Level Salt Lake Center
10:25PM 42.7239 -111.8853 285° West 441 507 36,000  Level Salt Lake Center
10:26PM 42.7600 -112.0647 285° West 440 506 36,000  Level Salt Lake Center
10:27PM 42.7886 -112.2186 284° West 439 505 36,000  Level Salt Lake Center
10:28PM 42.8175 -112.3736 284° West 441 507 36,000  Level Salt Lake Center
10:30PM 42.8522 -112.5525 285° West 437 503 36,000  Level Salt Lake Center
10:31PM 42.8836 -112.7031 286° West 433 498 36,000  Level Salt Lake Center
10:32PM 42.9303 -112.8464 294° West 432 497 36,000  Level Salt Lake Center
10:33PM 42.9881 -113.0100 296° West 429 494 36,000  Level Salt Lake Center
10:34PM 43.0367 -113.1519 295° West 430 495 36,000  Level Salt Lake Center
10:35PM 43.0947 -113.3197 295° West 434 499 36,000  Level Salt Lake Center
10:36PM 43.1433 -113.4628 295° West 433 498 36,000  Level Salt Lake Center
10:37PM 43.1922 -113.6064 295° West 434 499 36,000  Level Salt Lake Center
10:38PM 43.2494 -113.7725 295° West 432 497 36,000  Level Salt Lake Center
10:39PM 43.2975 -113.9208 294° West 443 510 36,000  Level Salt Lake Center
10:40PM 43.3456 -114.0631 295° West 430 495 36,000  Level Salt Lake Center
10:41PM 43.4006 -114.2294 295° West 427 491 36,000  Level Salt Lake Center
10:42PM 43.4481 -114.3711 295° West 427 491 36,000  Level Salt Lake Center
10:43PM 43.4944 -114.5147 294° West 428 493 36,000  Level Salt Lake Center
10:44PM 43.5503 -114.6808 295° West 428 493 36,000  Level Salt Lake Center
10:45PM 43.5967 -114.8233 294° West 427 491 36,000  Level Salt Lake Center
10:46PM 43.6414 -114.9653 294° West 423 487 36,000  Level Salt Lake Center
10:47PM 43.6953 -115.1317 294° West 425 489 36,000  Level Salt Lake Center
10:48PM 43.7408 -115.2744 294° West 424 488 36,000  Level Salt Lake Center
10:49PM 43.7947 -115.4403 294° West 423 487 36,000  Level Salt Lake Center
10:50PM 43.8406 -115.5850 294° West 426 490 36,000  Level Salt Lake Center
10:51PM 43.8853 -115.7306 293° West 428 493 36,000  Level Salt Lake Center
10:52PM 43.9389 -115.8989 294° West 427 491 36,000  Level Salt Lake Center
10:53PM 43.9839 -116.0444 293° West 426 490 36,000  Level Salt Lake Center
10:54PM 44.0286 -116.1897 293° West 424 488 36,000  Level Salt Lake Center
10:55PM 44.0728 -116.3347 293° West 423 487 36,000  Level Salt Lake Center
10:56PM 44.1253 -116.5031 294° West 422 486 36,000  Level Salt Lake Center
10:57PM 44.1681 -116.6467 293° West 418 481 36,000  Level Salt Lake Center
10:58PM 44.2114 -116.7906 293° West 419 482 36,000  Level Salt Lake Center
10:59PM 44.2614 -116.9569 293° West 416 479 36,000  Level Salt Lake Center
11:00PM 44.3047 -117.1014 293° West 418 481 36,000  Level Salt Lake Center
11:01PM 44.3469 -117.2447 292° West 418 481 36,000  Level Salt Lake Center
11:02PM 44.3956 -117.4136 292° West 414 476 36,000  Level Salt Lake Center
11:03PM 44.4389 -117.5581 293° West 418 481 36,000  Level Salt Lake Center
11:04PM 44.4811 -117.7036 292° West 420 483 36,000  Level Salt Lake Center
11:05PM 44.5308 -117.8731 292° West 422 486 36,000  Level Salt Lake Center
11:06PM 44.5731 -118.0192 292° West 423 487 36,000  Level Salt Lake Center
11:07PM 44.6144 -118.1658 292° West 421 484 36,000  Level Seattle Center
11:08PM 44.6569 -118.3122 292° West 419 482 36,000  Level Seattle Center
11:09PM 44.6986 -118.4633 291° West 417 480 36,000  Level Seattle Center
11:10PM 44.7417 -118.6144 292° West 418 481 36,000  Level Seattle Center
11:11PM 44.7847 -118.7656 292° West 417 480 36,000  Level Seattle Center
11:12PM 44.8258 -118.9181 291° West 419 482 36,000  Level Seattle Center
11:13PM 44.8681 -119.0692 292° West 417 480 36,000  Level Seattle Center
11:14PM 44.9089 -119.2214 291° West 417 480 36,000  Level Seattle Center
11:15PM 44.9517 -119.3739 292° West 419 482 36,000  Level Seattle Center
11:16PM 44.9925 -119.5242 291° West 415 478 36,000  Level Seattle Center
11:17PM 45.0322 -119.6750 290° West 414 476 36,000  Level Seattle Center
11:18PM 45.0794 -119.8531 291° West 412 474 36,000  Level Seattle Center
11:19PM 45.1186 -120.0006 291° West 411 473 36,000 -360 Level Seattle Center
11:20PM 45.1575 -120.1483 291° West 409 471 35,300 -1,320 Descending Seattle Center
11:21PM 45.1950 -120.2939 290° West 397 457 33,400 -2,340 Descending Seattle Center
11:22PM 45.2331 -120.4397 290° West 396 456 30,700 -2,340 Descending Seattle Center
11:23PM 45.2708 -120.5833 291° West 391 450 28,700 -2,040 Descending Seattle Center
11:24PM 45.3067 -120.7239 290° West 380 437 26,700 -2,040 Descending Seattle Center
11:25PM 45.3433 -120.8672 290° West 385 443 24,700 -1,980 Descending Seattle Center
11:26PM 45.3781 -121.0033 290° West 370 426 22,800 -1,800 Descending Seattle Center
11:27PM 45.4106 -121.1364 289° West 360 414 21,100 -1,920 Descending Seattle Center
11:28PM 45.4381 -121.2667 287° West 346 398 19,000 -2,280 Descending Seattle Center
11:29PM 45.4525 -121.4028 279° West 338 389 16,800 -2,340 Descending Seattle Center
11:30PM 45.4675 -121.5292 280° West 333 383 14,400 -2,280 Descending Seattle Center
11:31PM 45.4767 -121.5875 283° West 319 367 13,600 -1,680 Descending Seattle Center
11:31PM 45.4836 -121.6492 279° West 310 357 12,700 -1,620 Descending Seattle Center
11:32PM 45.4906 -121.7050 280° West 297 342 12,000 -1,440 Descending Seattle Center
11:32PM 45.4958 -121.7656 277° West 297 342 11,300 -1,260 Descending Seattle Center
11:33PM 45.5114 -121.9189 278° West 268 308 9,600 -1,440 Descending Seattle Center
11:34PM 45.5053 -121.9856 263° West 267 307 8,400 -1,560 Descending Seattle Center
11:35PM 45.5014 -122.0900 267° West 267 307 6,800 -1,500 Descending Seattle Center
11:36PM 45.4989 -122.2267 269° West 250 288 5,100 -1,200 Descending Seattle Center
11:37PM 45.4983 -122.2850 269° West 251 289 4,400 -960 Descending Seattle Center
11:38PM 45.5006 -122.3569 273° West 214 246 3,400 -1,140 Descending Seattle Center
11:39PM 45.5125 -122.3875 299° West 177 204 2,900 -1,020 Descending Seattle Center
11:39PM 45.5253 -122.4153 303° West 187 215 2,400 -780 Descending Seattle Center